Time;durP1;ratioP1;P1;durP2;ratioP2;P2;SDS_P1;SDS_P2;PMS_P1;PMS_P2;Temp;Humidity;BMP_temperature;BMP_pressure;BME280_temperature;BME280_humidity;BME280_pressure;Samples;Min_cycle;Max_cycle;Signal;HPM_P1;HPM_P2
2021/06/15 00:01:30;;;;;;;2.67;1.37;;;23.00;48.80;;;;;;5012124;28;20754;-62
2021/06/15 00:03:56;;;;;;;2.33;1.50;;;23.00;48.70;;;;;;5010464;28;20435;-62
2021/06/15 00:06:21;;;;;;;2.30;1.33;;;23.00;48.70;;;;;;5011625;28;20413;-62
2021/06/15 00:08:47;;;;;;;2.20;1.40;;;23.00;48.70;;;;;;5011973;28;20389;-62
2021/06/15 00:11:13;;;;;;;2.42;1.50;;;23.00;48.70;;;;;;5011952;28;20385;-61
2021/06/15 00:13:38;;;;;;;1.83;1.50;;;23.00;48.70;;;;;;5010697;28;20385;-62
2021/06/15 00:16:04;;;;;;;1.90;1.27;;;23.00;48.70;;;;;;5010179;28;20884;-61
2021/06/15 00:18:33;;;;;;;2.78;1.38;;;23.00;48.70;;;;;;5011843;28;20401;-62
2021/06/15 00:20:59;;;;;;;2.10;1.30;;;23.00;48.70;;;;;;5011742;28;20802;-62
2021/06/15 00:23:24;;;;;;;1.77;1.40;;;23.00;48.70;;;;;;5011887;28;20476;-62
2021/06/15 00:25:50;;;;;;;2.30;1.70;;;23.00;48.70;;;;;;5011537;28;20425;-61
2021/06/15 00:28:16;;;;;;;2.00;1.50;;;23.00;48.70;;;;;;5011535;28;20420;-62
2021/06/15 00:30:41;;;;;;;2.50;1.60;;;23.00;48.70;;;;;;5011727;28;20952;-62
2021/06/15 00:33:08;;;;;;;1.90;1.50;;;23.00;48.70;;;;;;5011666;28;20458;-62
2021/06/15 00:35:34;;;;;;;2.42;1.50;;;23.00;48.70;;;;;;5011355;28;20397;-62
2021/06/15 00:38:00;;;;;;;2.15;1.42;;;23.00;48.70;;;;;;5010878;28;20401;-61
2021/06/15 00:40:26;;;;;;;2.00;1.53;;;23.00;48.70;;;;;;5011659;28;20404;-62
2021/06/15 00:42:52;;;;;;;2.10;1.60;;;23.00;48.80;;;;;;5011484;28;20441;-61
2021/06/15 00:45:23;;;;;;;2.35;1.52;;;23.00;48.70;;;;;;5011280;28;20451;-62
2021/06/15 00:47:50;;;;;;;1.95;1.42;;;23.00;48.80;;;;;;5011274;28;20384;-61
2021/06/15 00:50:17;;;;;;;2.30;1.45;;;22.90;48.70;;;;;;5010903;28;20400;-62
2021/06/15 00:52:44;;;;;;;2.03;1.50;;;22.90;48.70;;;;;;5011624;28;20388;-65
2021/06/15 00:55:10;;;;;;;2.00;1.45;;;22.90;48.80;;;;;;5011165;28;20497;-63
2021/06/15 00:57:36;;;;;;;2.15;1.50;;;22.90;48.70;;;;;;5010383;28;20389;-62
2021/06/15 01:00:02;;;;;;;1.80;1.33;;;22.90;48.80;;;;;;5014332;28;20396;-62
2021/06/15 01:02:30;;;;;;;2.00;1.40;;;22.90;48.70;;;;;;5015093;28;20397;-61
2021/06/15 01:04:59;;;;;;;2.40;1.48;;;22.90;48.70;;;;;;5014914;28;20891;-61
2021/06/15 01:07:44;;;;;;;1.80;1.45;;;22.90;48.70;;;;;;5013753;28;20416;-61
2021/06/15 01:10:39;;;;;;;3.25;1.85;;;22.90;48.70;;;;;;5014700;28;20730;-61
2021/06/15 01:13:38;;;;;;;2.03;1.50;;;22.90;48.70;;;;;;5015147;28;20817;-61
2021/06/15 01:16:19;;;;;;;2.10;1.48;;;22.90;48.70;;;;;;5014833;28;20419;-62
2021/06/15 01:18:50;;;;;;;2.22;1.30;;;22.90;48.70;;;;;;5015117;28;20385;-61
2021/06/15 01:21:18;;;;;;;2.40;1.50;;;22.90;48.80;;;;;;5015132;28;20492;-65
2021/06/15 01:23:49;;;;;;;1.95;1.38;;;22.90;48.80;;;;;;5014915;28;20389;-61
2021/06/15 01:26:18;;;;;;;1.98;1.48;;;22.90;48.70;;;;;;5014536;28;20424;-62
2021/06/15 01:28:50;;;;;;;1.65;1.33;;;22.90;48.70;;;;;;5014860;28;20397;-62
2021/06/15 01:31:25;;;;;;;2.10;1.50;;;22.90;48.80;;;;;;5014833;28;20395;-62
2021/06/15 01:33:54;;;;;;;2.35;1.52;;;22.90;49.40;;;;;;5014562;28;20427;-63
2021/06/15 01:36:24;;;;;;;2.50;1.60;;;22.90;48.80;;;;;;5014342;28;20392;-63
2021/06/15 01:38:55;;;;;;;2.67;1.75;;;22.90;48.70;;;;;;5014602;28;20389;-62
2021/06/15 01:41:42;;;;;;;2.85;1.70;;;22.90;49.40;;;;;;5014688;28;20389;-61
2021/06/15 01:44:11;;;;;;;1.90;1.45;;;22.90;48.80;;;;;;5013964;28;20405;-61
2021/06/15 01:46:48;;;;;;;2.60;1.60;;;22.80;48.70;;;;;;5014636;28;20409;-61
2021/06/15 01:49:19;;;;;;;2.20;1.70;;;22.80;48.70;;;;;;5014516;28;20385;-61
2021/06/15 01:51:47;;;;;;;2.17;1.63;;;22.80;48.70;;;;;;5014473;28;20429;-63
2021/06/15 01:54:22;;;;;;;2.00;1.50;;;22.80;48.70;;;;;;4996672;28;20397;-61
2021/06/15 01:56:50;;;;;;;2.30;1.60;;;22.80;48.70;;;;;;5014054;28;20417;-61
2021/06/15 01:59:19;;;;;;;1.98;1.55;;;22.80;48.80;;;;;;5013347;28;20392;-61
2021/06/15 02:01:48;;;;;;;1.73;1.45;;;22.80;48.70;;;;;;5014249;28;20395;-61
2021/06/15 02:04:14;;;;;;;2.20;1.50;;;22.80;48.80;;;;;;5013621;28;20397;-62
2021/06/15 02:06:45;;;;;;;3.03;1.70;;;22.80;48.70;;;;;;5012882;28;20401;-61
2021/06/15 02:09:13;;;;;;;1.88;1.40;;;22.80;48.80;;;;;;5013559;28;20454;-61
2021/06/15 02:11:41;;;;;;;2.70;1.40;;;22.80;48.70;;;;;;5013465;28;20432;-61
2021/06/15 02:14:25;;;;;;;1.88;1.40;;;22.80;48.70;;;;;;5013585;28;20510;-61
2021/06/15 02:16:55;;;;;;;2.42;1.63;;;22.80;48.70;;;;;;5013980;28;20400;-62
2021/06/15 02:19:23;;;;;;;2.10;1.42;;;22.80;48.70;;;;;;5013755;28;20481;-61
2021/06/15 02:21:56;;;;;;;2.10;1.50;;;22.80;48.70;;;;;;5013744;28;20393;-62
2021/06/15 02:24:32;;;;;;;1.80;1.42;;;22.80;48.80;;;;;;5013575;28;20400;-63
2021/06/15 02:26:59;;;;;;;2.13;1.50;;;22.80;48.80;;;;;;5012432;28;20915;-62
2021/06/15 02:29:25;;;;;;;2.28;1.50;;;22.80;48.70;;;;;;5013753;28;20393;-61
2021/06/15 02:31:58;;;;;;;1.75;1.40;;;22.80;48.80;;;;;;5013626;28;20400;-62
2021/06/15 02:34:28;;;;;;;1.70;1.40;;;22.80;48.80;;;;;;5013352;28;20390;-62
2021/06/15 02:36:55;;;;;;;2.45;1.48;;;22.70;48.70;;;;;;5013386;28;20931;-62
2021/06/15 02:39:33;;;;;;;1.70;1.40;;;22.70;48.70;;;;;;5013482;28;20389;-61
2021/06/15 02:42:00;;;;;;;2.35;1.40;;;22.80;48.80;;;;;;5013234;28;20385;-62
2021/06/15 02:44:33;;;;;;;2.05;1.50;;;22.80;48.80;;;;;;5012601;28;20416;-62
2021/06/15 02:47:01;;;;;;;2.38;1.60;;;22.80;48.70;;;;;;5012970;28;20493;-62
2021/06/15 02:49:30;;;;;;;1.77;1.60;;;22.70;48.70;;;;;;5013285;28;20861;-62
2021/06/15 02:52:25;;;;;;;2.20;1.40;;;22.70;48.70;;;;;;5013203;28;20435;-62
2021/06/15 02:54:58;;;;;;;1.67;1.30;;;22.70;48.70;;;;;;5012758;28;20485;-64
2021/06/15 02:57:25;;;;;;;1.90;1.50;;;22.70;48.70;;;;;;5013269;28;20738;-63
2021/06/15 02:59:55;;;;;;;1.88;1.40;;;22.70;48.70;;;;;;5012441;28;20393;-62
2021/06/15 03:02:22;;;;;;;1.42;1.27;;;22.70;48.70;;;;;;5011331;28;20420;-64
2021/06/15 03:04:47;;;;;;;2.05;1.50;;;22.70;48.80;;;;;;5013015;28;20413;-61
2021/06/15 03:07:14;;;;;;;2.20;1.50;;;22.70;48.80;;;;;;5013086;28;20796;-61
2021/06/15 03:09:40;;;;;;;2.40;1.33;;;22.70;48.70;;;;;;5012920;28;20393;-61
2021/06/15 03:12:12;;;;;;;3.38;1.60;;;22.70;48.90;;;;;;5012620;28;20408;-61
2021/06/15 03:14:41;;;;;;;1.70;1.48;;;22.70;48.90;;;;;;5013012;28;20381;-62
2021/06/15 03:17:09;;;;;;;2.00;1.42;;;22.70;49.00;;;;;;5012714;28;20420;-61
2021/06/15 03:19:42;;;;;;;4.50;1.60;;;22.70;49.20;;;;;;5012637;28;20401;-62
2021/06/15 03:22:15;;;;;;;8.63;1.88;;;22.70;49.40;;;;;;5010972;28;20444;-62
2021/06/15 03:24:46;;;;;;;7.45;1.65;;;22.80;51.70;;;;;;5012006;28;20432;-62
2021/06/15 03:27:15;;;;;;;6.95;1.90;;;22.90;51.80;;;;;;5012663;28;20381;-62
2021/06/15 03:29:42;;;;;;;3.35;1.60;;;22.90;52.00;;;;;;5012662;28;20440;-62
2021/06/15 03:32:12;;;;;;;3.70;1.80;;;22.90;51.80;;;;;;5012060;28;20793;-62
2021/06/15 03:34:47;;;;;;;5.32;1.88;;;22.90;51.20;;;;;;5012492;28;20393;-62
2021/06/15 03:37:24;;;;;;;4.65;1.75;;;22.90;51.70;;;;;;5012258;28;20500;-62
2021/06/15 03:39:54;;;;;;;7.32;1.80;;;23.00;52.50;;;;;;5012125;28;20391;-62
2021/06/15 03:42:22;;;;;;;5.32;1.90;;;23.00;52.10;;;;;;5010973;28;20877;-62
2021/06/15 03:45:08;;;;;;;3.83;1.57;;;22.90;50.90;;;;;;5012018;28;20897;-62
2021/06/15 03:47:37;;;;;;;4.15;1.58;;;22.90;50.10;;;;;;5012342;28;20392;-62
2021/06/15 03:50:04;;;;;;;3.20;1.50;;;22.90;49.40;;;;;;5011970;28;20388;-62
2021/06/15 03:52:34;;;;;;;4.72;1.70;;;22.90;49.70;;;;;;5011895;28;20431;-62
2021/06/15 03:55:02;;;;;;;7.07;1.85;;;22.90;50.30;;;;;;5011961;28;20446;-62
2021/06/15 03:57:28;;;;;;;7.78;2.10;;;22.90;49.50;;;;;;5012124;28;20397;-64
2021/06/15 03:59:57;;;;;;;6.40;1.95;;;22.90;49.20;;;;;;5012023;28;20392;-61
2021/06/15 04:02:28;;;;;;;7.70;2.13;;;22.80;48.60;;;;;;5010880;28;20432;-62
2021/06/15 04:04:55;;;;;;;6.28;2.25;;;22.80;48.90;;;;;;5011701;28;20405;-63
2021/06/15 04:07:23;;;;;;;5.73;2.30;;;22.80;48.20;;;;;;5011958;28;20436;-61
2021/06/15 04:09:51;;;;;;;5.00;2.30;;;22.80;48.20;;;;;;5011523;28;20434;-62
2021/06/15 04:12:19;;;;;;;4.90;2.50;;;22.80;48.10;;;;;;5011628;28;21496;-62
2021/06/15 04:14:48;;;;;;;5.13;2.08;;;22.80;47.80;;;;;;5010107;28;20479;-62
2021/06/15 04:17:18;;;;;;;5.20;1.90;;;22.80;47.80;;;;;;5010431;28;20397;-62
2021/06/15 04:19:47;;;;;;;5.20;1.92;;;22.80;47.70;;;;;;5011911;28;20876;-62
2021/06/15 04:22:15;;;;;;;5.35;2.00;;;22.80;47.80;;;;;;5011387;28;20400;-61
2021/06/15 04:24:45;;;;;;;3.60;1.75;;;22.80;47.80;;;;;;5011790;28;20482;-62
2021/06/15 04:27:11;;;;;;;2.95;1.70;;;22.80;47.80;;;;;;5011631;28;20385;-61
2021/06/15 04:29:37;;;;;;;3.28;1.88;;;22.80;48.00;;;;;;5011820;28;20862;-62
2021/06/15 04:32:08;;;;;;;3.28;1.65;;;22.80;48.10;;;;;;5011539;28;20389;-62
2021/06/15 04:34:39;;;;;;;3.45;1.70;;;22.80;48.10;;;;;;5017620;28;20492;-62
2021/06/15 04:37:07;;;;;;;3.72;1.75;;;22.80;48.20;;;;;;5018199;28;20403;-62
2021/06/15 04:39:39;;;;;;;3.00;1.60;;;22.80;48.20;;;;;;5016920;28;20404;-62
2021/06/15 04:42:09;;;;;;;3.15;1.77;;;22.80;48.20;;;;;;5017933;28;20483;-62
2021/06/15 04:44:42;;;;;;;2.92;1.60;;;22.80;48.30;;;;;;5017749;28;20420;-63
2021/06/15 04:47:22;;;;;;;4.03;1.60;;;22.80;48.30;;;;;;5018156;28;20392;-64
2021/06/15 04:49:56;;;;;;;3.33;1.70;;;22.80;48.30;;;;;;5017245;28;20511;-63
2021/06/15 04:52:25;;;;;;;6.97;2.20;;;22.80;49.40;;;;;;5017733;28;20401;-63
2021/06/15 04:54:52;;;;;;;5.15;2.53;;;22.90;50.30;;;;;;5018020;28;20801;-62
2021/06/15 04:57:27;;;;;;;4.90;1.90;;;22.90;50.40;;;;;;5017989;28;20423;-65
2021/06/15 04:59:59;;;;;;;5.85;2.08;;;22.90;49.80;;;;;;5017927;28;20407;-66
2021/06/15 05:02:26;;;;;;;7.38;2.25;;;22.90;49.50;;;;;;5017744;28;20446;-66
2021/06/15 05:04:53;;;;;;;4.95;1.88;;;22.90;49.10;;;;;;5019112;28;20424;-66
2021/06/15 05:07:19;;;;;;;4.40;1.88;;;22.90;48.90;;;;;;5016614;28;20400;-65
2021/06/15 05:09:52;;;;;;;6.15;1.88;;;22.90;48.60;;;;;;5015901;28;20885;-65
2021/06/15 05:12:20;;;;;;;3.72;2.03;;;22.90;48.60;;;;;;5016846;28;20881;-66
2021/06/15 05:14:46;;;;;;;5.07;1.80;;;22.90;48.60;;;;;;5017211;28;20414;-66
2021/06/15 05:17:14;;;;;;;5.88;1.90;;;22.90;48.70;;;;;;5017723;28;20393;-65
2021/06/15 05:19:41;;;;;;;4.68;1.75;;;22.90;48.70;;;;;;5017305;28;20393;-66
2021/06/15 05:22:27;;;;;;;3.80;1.67;;;22.90;48.60;;;;;;5017631;28;20484;-66
2021/06/15 05:24:57;;;;;;;4.82;1.65;;;22.90;48.50;;;;;;5017682;28;20454;-66
2021/06/15 05:27:26;;;;;;;2.65;1.70;;;22.90;48.30;;;;;;5017888;28;20401;-66
2021/06/15 05:29:52;;;;;;;3.10;1.75;;;22.90;48.40;;;;;;5017910;28;20385;-66
2021/06/15 05:32:18;;;;;;;3.47;1.80;;;22.90;48.70;;;;;;5017402;28;20797;-66
2021/06/15 05:34:44;;;;;;;3.25;1.70;;;22.90;48.20;;;;;;5016587;28;20396;-66
2021/06/15 05:37:10;;;;;;;2.67;1.50;;;22.90;48.60;;;;;;5017459;28;20939;-66
2021/06/15 05:39:37;;;;;;;3.40;1.70;;;22.90;48.50;;;;;;5017891;28;20396;-66
2021/06/15 05:42:04;;;;;;;3.45;1.60;;;22.90;48.50;;;;;;5017495;28;20399;-65
2021/06/15 05:44:29;;;;;;;3.45;1.77;;;22.90;48.50;;;;;;5016165;28;20411;-66
2021/06/15 05:46:55;;;;;;;4.00;1.60;;;22.90;48.40;;;;;;5014550;28;20396;-66
2021/06/15 05:49:21;;;;;;;2.50;1.45;;;22.90;48.60;;;;;;5012870;28;20488;-66
2021/06/15 05:51:46;;;;;;;3.70;1.60;;;22.90;48.50;;;;;;5013986;28;20884;-65
2021/06/15 05:54:13;;;;;;;2.20;1.50;;;23.00;48.60;;;;;;5014225;28;20385;-65
2021/06/15 05:56:38;;;;;;;2.90;1.50;;;23.00;48.60;;;;;;5012937;28;20412;-66
2021/06/15 05:59:04;;;;;;;2.45;1.63;;;23.00;48.50;;;;;;5014322;28;20396;-66
2021/06/15 06:01:30;;;;;;;2.80;1.57;;;23.00;48.60;;;;;;5014396;28;20400;-66
2021/06/15 06:04:02;;;;;;;2.58;1.70;;;23.00;48.60;;;;;;5013939;28;20479;-65
2021/06/15 06:09:12;;;;;;;2.90;1.55;;;23.00;48.60;;;;;;5013931;28;20392;-64
2021/06/15 06:11:38;;;;;;;2.45;1.50;;;23.00;48.60;;;;;;5014227;28;20748;-65
2021/06/15 06:14:04;;;;;;;2.93;1.67;;;23.00;48.50;;;;;;5013996;28;20389;-63
2021/06/15 06:16:30;;;;;;;2.50;1.60;;;23.00;48.40;;;;;;5013832;28;20391;-66
2021/06/15 06:18:56;;;;;;;2.33;1.58;;;23.00;48.50;;;;;;5013642;28;20393;-66
2021/06/15 06:21:22;;;;;;;2.97;1.40;;;23.00;48.50;;;;;;5013543;28;20391;-66
2021/06/15 06:23:47;;;;;;;2.50;1.60;;;23.10;48.40;;;;;;5013881;28;20748;-66
2021/06/15 06:26:13;;;;;;;2.07;1.40;;;23.10;48.40;;;;;;5013551;28;20413;-66
2021/06/15 06:28:39;;;;;;;2.65;1.60;;;23.00;48.50;;;;;;5013697;28;20843;-66
2021/06/15 06:31:04;;;;;;;2.67;1.60;;;23.10;48.40;;;;;;5013721;28;20416;-66
2021/06/15 06:33:30;;;;;;;3.47;1.50;;;23.10;48.50;;;;;;5013751;28;20395;-67
2021/06/15 06:35:55;;;;;;;2.10;1.40;;;23.10;48.30;;;;;;5013760;28;20437;-65
2021/06/15 06:38:21;;;;;;;2.40;1.50;;;23.10;48.50;;;;;;5013228;28;20427;-66
2021/06/15 06:40:47;;;;;;;1.93;1.47;;;23.10;48.30;;;;;;5013588;28;20394;-66
2021/06/15 06:43:13;;;;;;;2.47;1.50;;;23.10;48.40;;;;;;5013569;28;20853;-66
2021/06/15 06:45:38;;;;;;;2.20;1.40;;;23.10;48.50;;;;;;5013299;28;20424;-66
2021/06/15 06:48:06;;;;;;;1.92;1.42;;;23.10;48.40;;;;;;5013407;28;20420;-66
2021/06/15 06:50:32;;;;;;;2.40;1.40;;;23.10;48.40;;;;;;5013070;28;20410;-66
2021/06/15 06:52:58;;;;;;;2.70;1.60;;;23.10;48.00;;;;;;5013294;28;20765;-66
2021/06/15 06:55:23;;;;;;;1.80;1.40;;;23.10;48.10;;;;;;5013188;28;20810;-66
2021/06/15 06:57:49;;;;;;;2.03;1.53;;;23.10;48.20;;;;;;5011680;28;20407;-66
2021/06/15 07:00:16;;;;;;;2.38;1.30;;;23.10;48.20;;;;;;5012981;28;20484;-65
2021/06/15 07:02:42;;;;;;;2.03;1.50;;;23.10;48.30;;;;;;5013036;28;20500;-66
2021/06/15 07:05:08;;;;;;;2.83;1.50;;;23.10;48.20;;;;;;5012727;28;20516;-66
2021/06/15 07:07:35;;;;;;;1.95;1.30;;;23.10;48.30;;;;;;5012556;28;20397;-67
2021/06/15 07:10:00;;;;;;;2.30;1.60;;;23.10;48.10;;;;;;5012795;28;20396;-66
2021/06/15 07:12:26;;;;;;;2.30;1.53;;;23.10;48.30;;;;;;5012569;28;20397;-66
2021/06/15 07:14:52;;;;;;;2.28;1.35;;;23.10;48.00;;;;;;5012868;28;20391;-66
2021/06/15 07:17:17;;;;;;;1.93;1.30;;;23.10;48.30;;;;;;5012861;28;20385;-66
2021/06/15 07:19:43;;;;;;;1.80;1.40;;;23.20;48.40;;;;;;5011569;28;20404;-66
2021/06/15 07:22:09;;;;;;;1.93;1.30;;;23.20;48.30;;;;;;5011873;28;20391;-66
2021/06/15 07:24:35;;;;;;;1.98;1.40;;;23.10;48.20;;;;;;5012472;28;20885;-66
2021/06/15 07:27:02;;;;;;;2.45;1.38;;;23.20;48.30;;;;;;5012712;28;20486;-66
2021/06/15 07:29:27;;;;;;;1.90;1.30;;;23.20;48.30;;;;;;5012611;28;20854;-66
2021/06/15 07:31:54;;;;;;;1.92;1.45;;;23.20;48.40;;;;;;5011396;28;20496;-66
2021/06/15 07:34:21;;;;;;;2.15;1.20;;;23.20;48.30;;;;;;5012398;28;20380;-66
2021/06/15 07:36:47;;;;;;;2.30;1.40;;;23.20;48.30;;;;;;5011048;28;20400;-66
2021/06/15 07:39:13;;;;;;;2.05;1.30;;;23.20;48.30;;;;;;5012535;28;20412;-66
2021/06/15 07:41:39;;;;;;;2.00;1.25;;;23.20;48.20;;;;;;5012400;28;20385;-66
2021/06/15 07:44:06;;;;;;;3.10;1.50;;;23.20;48.30;;;;;;5010964;28;20948;-66
2021/06/15 07:46:32;;;;;;;2.00;1.25;;;23.20;48.00;;;;;;5010638;28;20779;-66
2021/06/15 07:48:58;;;;;;;4.10;1.58;;;23.20;48.00;;;;;;5012349;28;20388;-66
2021/06/15 07:51:24;;;;;;;2.63;1.30;;;23.20;48.30;;;;;;5012197;28;20416;-66
2021/06/15 07:53:50;;;;;;;1.77;1.40;;;23.10;48.30;;;;;;5012246;28;20479;-66
2021/06/15 07:56:16;;;;;;;2.42;1.40;;;23.20;48.30;;;;;;5011981;28;20385;-66
2021/06/15 07:58:42;;;;;;;3.25;1.45;;;23.20;48.30;;;;;;5011982;28;20395;-65
2021/06/15 08:01:08;;;;;;;1.88;1.20;;;23.20;48.30;;;;;;5012084;28;20475;-66
2021/06/15 08:03:33;;;;;;;3.00;1.60;;;23.20;48.90;;;;;;5012136;28;20432;-66
2021/06/15 08:05:59;;;;;;;1.60;1.20;;;23.20;48.20;;;;;;5011957;28;20483;-66
2021/06/15 08:08:25;;;;;;;1.60;1.30;;;23.20;48.20;;;;;;5010785;28;20936;-66
2021/06/15 08:10:51;;;;;;;2.40;1.40;;;23.20;48.20;;;;;;5012004;28;20488;-66
2021/06/15 08:13:17;;;;;;;2.10;1.40;;;23.20;48.20;;;;;;5010752;28;20746;-66
2021/06/15 08:15:42;;;;;;;2.70;1.20;;;23.20;48.30;;;;;;5012014;28;20544;-66
2021/06/15 08:18:08;;;;;;;2.20;1.30;;;23.20;48.20;;;;;;5012097;28;20420;-66
2021/06/15 08:20:34;;;;;;;1.88;1.50;;;23.20;48.20;;;;;;5011749;28;20490;-67
2021/06/15 08:23:00;;;;;;;1.85;1.23;;;23.20;48.20;;;;;;5011520;28;20479;-66
2021/06/15 08:25:26;;;;;;;2.20;1.20;;;23.20;48.10;;;;;;5011740;28;20412;-66
2021/06/15 08:27:52;;;;;;;1.58;1.20;;;23.20;48.10;;;;;;5010487;28;20396;-66
2021/06/15 08:30:18;;;;;;;2.33;1.38;;;23.20;48.10;;;;;;5011561;28;20388;-66
2021/06/15 08:32:44;;;;;;;1.98;1.20;;;23.20;48.20;;;;;;5011370;28;20403;-65
2021/06/15 08:35:10;;;;;;;2.60;1.58;;;23.20;48.10;;;;;;5011730;28;20385;-66
2021/06/15 08:37:36;;;;;;;1.60;1.20;;;23.20;48.20;;;;;;5011363;28;20468;-66
2021/06/15 08:40:04;;;;;;;2.17;1.45;;;23.20;48.20;;;;;;5011661;28;20401;-66
2021/06/15 08:42:30;;;;;;;1.67;1.10;;;23.20;48.20;;;;;;5011296;28;20384;-66
2021/06/15 08:44:56;;;;;;;2.60;1.30;;;23.20;48.20;;;;;;5011327;28;20428;-65
2021/06/15 08:47:22;;;;;;;2.03;1.20;;;23.20;48.30;;;;;;5011679;28;20431;-66
2021/06/15 08:49:47;;;;;;;1.90;1.27;;;23.20;48.20;;;;;;5011527;28;20405;-66
2021/06/15 08:52:13;;;;;;;1.58;1.10;;;23.20;48.20;;;;;;5010109;28;20388;-65
2021/06/15 08:54:40;;;;;;;2.50;1.30;;;23.20;48.30;;;;;;5010024;28;20397;-66
2021/06/15 08:57:07;;;;;;;3.60;1.30;;;23.20;48.30;;;;;;5011497;28;20426;-65
2021/06/15 08:59:33;;;;;;;1.85;1.20;;;23.20;48.20;;;;;;5011549;28;20404;-66
2021/06/15 09:02:05;;;;;;;2.15;1.30;;;23.20;48.20;;;;;;5011435;28;20757;-66
2021/06/15 09:04:32;;;;;;;1.77;1.10;;;23.20;48.30;;;;;;5010987;28;20403;-66
2021/06/15 09:06:58;;;;;;;1.80;1.10;;;23.20;48.20;;;;;;5011572;28;20397;-66
2021/06/15 09:09:43;;;;;;;2.30;1.20;;;23.20;48.20;;;;;;5011453;28;20396;-66
2021/06/15 09:12:11;;;;;;;2.75;1.40;;;23.20;48.20;;;;;;5011404;28;20419;-66
2021/06/15 09:14:56;;;;;;;1.75;1.10;;;23.20;48.30;;;;;;5010928;28;20389;-66
2021/06/15 09:17:28;;;;;;;2.17;1.38;;;23.20;48.30;;;;;;5011353;28;20476;-66
2021/06/15 09:20:07;;;;;;;2.10;1.20;;;23.20;48.30;;;;;;5013208;28;20397;-66
2021/06/15 09:22:34;;;;;;;2.03;1.20;;;23.20;48.30;;;;;;5014651;28;20446;-66
2021/06/15 09:25:03;;;;;;;1.70;1.10;;;23.20;48.30;;;;;;5014881;28;20421;-66
2021/06/15 09:27:33;;;;;;;2.08;1.10;;;23.20;48.30;;;;;;5014936;28;20444;-66
2021/06/15 09:30:03;;;;;;;3.50;1.40;;;23.20;48.30;;;;;;5014990;28;20377;-65
2021/06/15 09:32:41;;;;;;;2.50;1.20;;;23.20;48.30;;;;;;5014516;28;20396;-63
2021/06/15 09:35:15;;;;;;;2.40;1.58;;;23.20;48.30;;;;;;5014693;28;20415;-66
2021/06/15 09:37:41;;;;;;;2.20;1.50;;;23.20;48.40;;;;;;5014804;28;20393;-66
2021/06/15 09:40:22;;;;;;;1.67;1.30;;;23.20;48.30;;;;;;5014684;28;20381;-66
2021/06/15 09:43:04;;;;;;;2.30;1.50;;;23.20;48.30;;;;;;5014348;28;20874;-66
2021/06/15 09:45:31;;;;;;;1.75;1.30;;;23.20;48.30;;;;;;5014375;28;20416;-66
2021/06/15 09:48:21;;;;;;;2.40;1.30;;;23.20;48.30;;;;;;5014468;28;20877;-66
2021/06/15 09:50:47;;;;;;;2.97;1.50;;;23.20;48.30;;;;;;5014189;28;20858;-66
2021/06/15 09:53:32;;;;;;;2.40;1.27;;;23.20;48.30;;;;;;5014429;28;20551;-66
2021/06/15 09:56:06;;;;;;;2.80;1.40;;;23.20;48.30;;;;;;5014417;28;20384;-66
2021/06/15 09:58:52;;;;;;;1.70;1.42;;;23.20;48.30;;;;;;5014064;28;20389;-66
2021/06/15 10:01:42;;;;;;;1.90;1.30;;;23.20;48.30;;;;;;5014382;28;20427;-66
2021/06/15 10:04:11;;;;;;;2.42;1.35;;;23.20;48.20;;;;;;5014411;28;20384;-66
2021/06/15 10:06:43;;;;;;;2.35;1.58;;;23.20;48.20;;;;;;5013753;28;20416;-65
2021/06/15 10:09:09;;;;;;;2.17;1.50;;;23.20;48.30;;;;;;5012929;28;20396;-66
2021/06/15 10:11:35;;;;;;;1.77;1.30;;;23.20;48.30;;;;;;5012872;28;20409;-66
2021/06/15 10:14:03;;;;;;;2.45;1.40;;;23.20;48.30;;;;;;5014082;28;20907;-66
2021/06/15 10:16:29;;;;;;;2.38;1.60;;;23.20;48.30;;;;;;5013944;28;20400;-66
2021/06/15 10:18:58;;;;;;;3.63;1.38;;;23.20;48.30;;;;;;5012596;28;20439;-65
2021/06/15 10:21:23;;;;;;;1.83;1.20;;;23.20;48.30;;;;;;5014254;28;20393;-65
2021/06/15 10:23:50;;;;;;;2.10;1.37;;;23.20;48.30;;;;;;5013876;28;20803;-66
2021/06/15 10:26:15;;;;;;;2.00;1.30;;;23.20;48.30;;;;;;5013787;28;20896;-66
2021/06/15 10:28:41;;;;;;;2.35;1.42;;;23.20;48.30;;;;;;5013408;28;20423;-66
2021/06/15 10:31:07;;;;;;;2.00;1.20;;;23.20;48.30;;;;;;5012777;28;20438;-65
2021/06/15 10:33:43;;;;;;;1.93;1.50;;;23.20;48.30;;;;;;5013694;28;20393;-66
2021/06/15 10:36:09;;;;;;;2.35;1.50;;;23.20;48.30;;;;;;5013633;28;20404;-66
2021/06/15 10:38:46;;;;;;;1.60;1.30;;;23.20;48.30;;;;;;5013175;28;20426;-65
2021/06/15 10:41:23;;;;;;;1.90;1.30;;;23.20;48.30;;;;;;5013585;28;20495;-66
2021/06/15 10:43:53;;;;;;;1.95;1.30;;;23.10;48.20;;;;;;5013380;28;20405;-66
2021/06/15 10:46:19;;;;;;;2.25;1.30;;;23.10;48.20;;;;;;5013252;28;20421;-65
2021/06/15 10:48:58;;;;;;;2.35;1.40;;;23.10;48.30;;;;;;5013168;28;20389;-66
2021/06/15 10:51:57;;;;;;;2.15;1.48;;;23.20;48.30;;;;;;5013396;28;20412;-66
2021/06/15 10:54:33;;;;;;;2.10;1.45;;;23.20;48.30;;;;;;5013102;28;20496;-66
2021/06/15 10:57:17;;;;;;;2.08;1.30;;;23.10;48.20;;;;;;5013215;28;20459;-66
2021/06/15 11:00:00;;;;;;;1.90;1.20;;;23.10;48.20;;;;;;5013170;28;20451;-64
2021/06/15 11:02:28;;;;;;;2.53;1.23;;;23.10;48.20;;;;;;5012974;28;20412;-65
2021/06/15 11:04:55;;;;;;;2.15;1.35;;;23.10;48.30;;;;;;5011494;28;20416;-66
2021/06/15 11:07:34;;;;;;;1.75;1.20;;;23.10;48.30;;;;;;5013165;28;20531;-66
2021/06/15 11:10:01;;;;;;;2.13;1.38;;;23.10;48.30;;;;;;5012957;28;20396;-66
2021/06/15 11:12:27;;;;;;;1.80;1.23;;;23.10;48.30;;;;;;5012751;28;20397;-66
2021/06/15 11:15:10;;;;;;;2.07;1.30;;;23.10;48.30;;;;;;5012578;28;20443;-66
2021/06/15 11:17:54;;;;;;;2.47;1.30;;;23.10;48.30;;;;;;5012891;28;20400;-66
2021/06/15 11:20:27;;;;;;;1.70;1.30;;;23.10;48.30;;;;;;5012980;28;20395;-66
2021/06/15 11:23:11;;;;;;;1.95;1.23;;;23.10;48.30;;;;;;5011456;28;20444;-66
2021/06/15 11:25:48;;;;;;;1.80;1.42;;;23.20;48.30;;;;;;5012715;28;20467;-66
2021/06/15 11:28:36;;;;;;;2.20;1.60;;;23.10;48.20;;;;;;5011473;28;20893;-66
2021/06/15 11:31:17;;;;;;;2.50;1.35;;;23.20;48.30;;;;;;5012690;28;20463;-66
2021/06/15 11:34:01;;;;;;;1.70;1.30;;;23.10;48.20;;;;;;5012585;28;20931;-66
2021/06/15 11:36:40;;;;;;;2.70;1.30;;;23.20;48.30;;;;;;5012401;28;20474;-66
2021/06/15 11:39:29;;;;;;;2.38;1.25;;;23.20;48.30;;;;;;5011213;28;20412;-65
2021/06/15 11:42:06;;;;;;;1.77;1.35;;;23.20;48.30;;;;;;5012350;28;20393;-66
2021/06/15 11:44:55;;;;;;;1.73;1.20;;;23.20;48.30;;;;;;5010816;28;20413;-67
2021/06/15 11:47:35;;;;;;;1.55;1.23;;;23.20;48.20;;;;;;5011283;28;20404;-65
2021/06/15 11:50:19;;;;;;;1.73;1.30;;;23.20;48.30;;;;;;5011084;28;20431;-66
2021/06/15 11:52:53;;;;;;;1.90;1.20;;;23.20;48.20;;;;;;5011827;28;20837;-64
2021/06/15 11:55:23;;;;;;;1.70;1.30;;;23.20;48.20;;;;;;5012383;28;20392;-66
2021/06/15 11:57:55;;;;;;;2.05;1.25;;;23.20;48.20;;;;;;5012003;28;20448;-66
2021/06/15 12:00:22;;;;;;;1.95;1.25;;;23.20;48.20;;;;;;5012292;28;20404;-66
2021/06/15 12:02:47;;;;;;;3.03;1.30;;;23.20;48.40;;;;;;5006584;28;20747;-64
2021/06/15 12:05:16;;;;;;;1.93;1.30;;;23.20;48.50;;;;;;5007304;28;20408;-66
2021/06/15 12:07:51;;;;;;;2.27;1.30;;;23.20;48.50;;;;;;5012438;28;20396;-66
2021/06/15 12:10:17;;;;;;;3.00;1.40;;;23.20;48.40;;;;;;5012122;28;20714;-64
2021/06/15 12:13:01;;;;;;;2.72;1.30;;;23.20;48.30;;;;;;5011487;28;20400;-65
2021/06/15 12:15:35;;;;;;;5.10;1.20;;;23.30;48.40;;;;;;5011982;28;20392;-67
2021/06/15 12:18:02;;;;;;;4.05;1.40;;;23.30;48.50;;;;;;5011802;28;20527;-63
2021/06/15 12:20:30;;;;;;;5.18;1.50;;;23.30;48.70;;;;;;5011661;28;20443;-63
2021/06/15 12:22:56;;;;;;;7.60;1.50;;;23.30;48.70;;;;;;5011555;28;20475;-64
2021/06/15 12:25:30;;;;;;;3.47;1.40;;;23.30;48.70;;;;;;5011843;28;20491;-64
2021/06/15 12:28:12;;;;;;;3.85;1.30;;;23.30;48.80;;;;;;5011800;28;20396;-65
2021/06/15 12:30:41;;;;;;;5.03;1.45;;;23.30;48.80;;;;;;5010024;28;20393;-64
2021/06/15 12:33:08;;;;;;;3.67;1.30;;;23.30;48.80;;;;;;5011771;28;20872;-66
2021/06/15 12:35:34;;;;;;;6.63;1.47;;;23.30;48.80;;;;;;5011748;28;20572;-66
2021/06/15 12:38:21;;;;;;;4.60;1.42;;;23.30;48.80;;;;;;5011745;28;20944;-67
2021/06/15 12:40:47;;;;;;;2.85;1.30;;;23.30;48.80;;;;;;5011210;28;20377;-66
2021/06/15 12:43:13;;;;;;;2.67;1.20;;;23.30;48.70;;;;;;5011625;28;20388;-66
2021/06/15 12:45:40;;;;;;;3.13;1.20;;;23.30;48.70;;;;;;5011394;28;20416;-65
2021/06/15 12:48:25;;;;;;;2.20;1.05;;;23.30;48.70;;;;;;5011582;28;20397;-65
2021/06/15 12:51:22;;;;;;;2.47;1.10;;;23.30;48.70;;;;;;5011214;28;20395;-66
2021/06/15 12:53:49;;;;;;;2.70;1.30;;;23.30;48.70;;;;;;5003653;28;20409;-65
2021/06/15 12:56:21;;;;;;;1.80;1.20;;;23.30;48.70;;;;;;5015297;28;20416;-62
2021/06/15 12:58:49;;;;;;;2.25;1.10;;;23.30;48.70;;;;;;5011622;28;20396;-62
2021/06/15 13:01:34;;;;;;;1.50;1.00;;;24.60;49.10;;;;;;5015011;28;20770;-63
2021/06/15 13:04:14;;;;;;;1.52;1.00;;;25.30;46.80;;;;;;5015083;28;20389;-65
2021/06/15 13:06:41;;;;;;;1.75;1.00;;;25.60;45.50;;;;;;5015045;28;20420;-63